Startpagina
METAR-TAF:

METAR-TAF

Vliegvelden :

Cayenne, Frans Guyana

Aéroport de Cayenne-Félix Eboué

breedte: 04-50N, lengte: 052-22W, hoogte: 105 m

Actueel weer

Dit bericht is 12 minuten geleden gemaakt, om 00:30 UTC
Wind 2 kt uit het zuidoosten
Temperatuur 26°C
Vochtigheid 84%
Druk 1014 hPa
Zicht 10 km of meer
geen wolken onder 1500 m en geen cumulonimbus

METAR: SOCA 260030Z AUTO 13002KT CAVOK 26/23 Q1014 NOSIG

Tijdstip: 21:42 (00:42 UTC)

Verwachting

Dit bericht is 1 uur en het 42 minuten geleden gemaakt, om 23:00 UTC
Verwachting geldig van 26 om 00 UTC tot 26 om 24 UTC
Wind 4 kt uit het oosten
Zicht 10 km of meer
geen wolken onder 1500 m en geen cumulonimbus
Wijzigt naar
van 26 om 00 UTC tot 26 om 03 UTC
Verspreide wolken op 1000 ft
Kans 40% :
Tijdelijke
van 26 om 15 UTC tot 26 om 21 UTC
Wind 15 kt uit het oosten
Zicht: 3000 m
Weinig wolken op 1200 ft, Stapelwolken.
regenbuien

TAF: SOCA 252300Z 2600/2624 10004KT CAVOK BECMG 2600/2603 SCT010 PROB40 TEMPO 2615/2621 09015KT 3000 SHRA FEW012TCU

Waarnemingen en weersverwachtingen van meer dan 4000 vliegvelden (METAR en TAF).

De beschikbare stations zijn de gele en rode punten op de kaart.

Ga met uw muis naar het station om de naam te zien.

Klik dan om waarnemingen en weersverwachtingen te zien.

kaart wijzigen: klik op de groene knoppen met een zwart kruis om in te zoomen, op de groene knop met een streepje om uit te zoomen of op de groene pijlen voor aangrenzende kaarten.


METAR-TAF: